Flight Track Log - Related Links

Times and Time Zones

All times are in EDT time to prevent confusion due to time zone crossing. See the EJA922 flight status page for this flight to view local times or setup timezone preferences in your user account.

Time Position Orientation Groundspeed Altitude Reporting Facility
EDT Latitude Longitude Course Direction KTS MPH feet Rate Location/Type
Sun 04:56:52 PM 44.0300 -69.2664 245° Southwest 284 327 7,600  Level Boston Center
Sun 04:57:52 PM 43.9875 -69.3869 251° West 320 368 11,800 2,250 Climbing Boston Center
Sun 04:58:52 PM 43.9608 -69.4894 250° West 338 389 12,100 1,900 Climbing Boston Center
Sun 04:59:52 PM 43.9172 -69.6558 250° West 384 442 15,600 2,700 Climbing Boston Center
Sun 05:00:52 PM 43.8808 -69.7928 250° West 384 442 17,500 1,700 Climbing Boston Center
Sun 05:01:52 PM 43.8444 -69.9383 251° West 394 453 19,000 1,500 Climbing Boston Center
Sun 05:02:52 PM 43.8058 -70.0839 250° West 394 453 20,500 1,450 Climbing Boston Center
Sun 05:03:52 PM 43.7631 -70.2350 249° West 418 481 21,900 1,400 Climbing Boston Center
Sun 05:04:52 PM 43.7222 -70.3947 251° West 437 503 23,300 1,350 Climbing Boston Center
Sun 05:05:52 PM 43.6831 -70.5453 250° West 431 496 24,600 1,350 Climbing Boston Center
Sun 05:06:52 PM 43.6439 -70.6986 251° West 431 496 26,000 1,300 Climbing Boston Center
Sun 05:07:52 PM 43.6003 -70.8575 249° West 431 496 27,200 1,000 Climbing Boston Center
Sun 05:08:52 PM 43.5567 -71.0192 250° West 436 502 28,000 400 Climbing Boston Center
Sun 05:09:52 PM 43.5125 -71.1775 249° West 469 540 28,000  Level Boston Center
Sun 05:10:52 PM 43.4622 -71.3531 249° West 487 560 28,000  Level Boston Center
Sun 05:11:52 PM 43.4117 -71.5311 249° West 498 573 28,000  Level Boston Center
Sun 05:12:52 PM 43.3631 -71.7089 249° West 498 573 28,000  Level Boston Center
Sun 05:13:52 PM 43.3119 -71.8894 249° West 498 573 28,000  Level Boston Center
Sun 05:14:52 PM 43.2606 -72.0753 249° West 512 589 28,000  Level Boston Center
Sun 05:15:52 PM 43.2089 -72.2550 249° West 512 589 28,000  Level Boston Center
Sun 05:16:52 PM 43.1547 -72.4372 248° West 512 589 28,000  Level Boston Center
Sun 05:17:52 PM 43.0942 -72.6392 248° West 512 589 28,000  Level Boston Center
Sun 05:18:52 PM 43.0397 -72.8178 247° West 524 603 28,000  Level Boston Center
Sun 05:19:52 PM 42.9972 -72.9653 249° West 524 603 28,000 -1,400 Level Boston Center
Sun 05:20:52 PM 42.9400 -73.1719 249° West 524 603 25,200 -2,000 Descending Boston Center
Sun 05:21:52 PM 42.8908 -73.3356 248° West 509 586 24,000 -1,100 Descending Boston Center
Sun 05:22:52 PM 42.8414 -73.5047 248° West 489 563 23,000 -750 Descending Boston Center
Sun 05:23:52 PM 42.7897 -73.6708 247° West 489 563 22,500 -1,364 Descending Boston Center
Sun 05:25:04 PM 42.7256 -73.8164 239° Southwest 464 534 20,000 -2,227 Descending Boston Center
Sun 05:26:04 PM 42.6036 -73.9069 209° Southwest 421 484 17,600 -2,000 Descending Boston Center
Sun 05:27:04 PM 42.5003 -73.8200 148° Southeast 317 365 16,000 -800 Descending Boston Center
Sun 05:28:04 PM 42.4192 -73.8042 172° South 322 371 16,000  Level Boston Center
Sun 05:29:04 PM 42.3453 -73.8981 223° Southwest 310 357 16,000  Level Boston Center
Sun 05:30:04 PM 42.2900 -73.9808 228° Southwest 326 375 16,000  Level Boston Center
Sun 05:31:04 PM 42.2156 -74.0883 227° Southwest 354 407 16,000  Level Boston Center
Sun 05:32:04 PM 42.1369 -74.1789 221° Southwest 367 422 16,000 -150 Level Boston Center
Sun 05:33:04 PM 42.0444 -74.2350 204° Southwest 373 429 15,700 -700 Descending Boston Center
Sun 05:34:04 PM 41.9497 -74.2881 203° Southwest 368 423 14,600 -933 Descending Boston Center
Sun 05:36:04 PM 41.7814 -74.3833 203° Southwest 328 377 12,900 -933 Descending Boston Center
Sun 05:37:04 PM 41.7036 -74.4256 202° Southwest 312 359 11,800 -1,300 Descending Boston Center
Sun 05:38:04 PM 41.6278 -74.4703 204° Southwest 298 343 10,300 -1,300 Descending Boston Center
Sun 05:39:04 PM 41.5539 -74.5122 203° Southwest 298 343 9,200 -1,200 Descending Boston Center
Sun 05:40:04 PM 41.4825 -74.5517 202° Southwest 292 336 7,900 -1,100 Descending Boston Center
Sun 05:41:04 PM 41.4172 -74.5881 203° Southwest 292 336 7,000 -535 Descending Boston Center
Sun 05:41:45 PM 41.3667 -74.6167 203° Southwest 277 319 7,000 -535 Level New York TRACON
Sun 05:42:45 PM 41.2833 -74.6333 189° South 279 321 6,100 -950 Descending New York TRACON
Sun 05:43:45 PM 41.2000 -74.6167 171° South 284 327 5,100 -1,050 Descending New York TRACON
Sun 05:44:45 PM 41.1333 -74.6500 201° Southwest 275 316 4,000 -950 Descending New York TRACON
Sun 05:45:45 PM 41.0667 -74.6333 169° South 266 306 3,200 -500 Descending New York TRACON
Sun 05:46:45 PM 41.0000 -74.5833 150° Southeast 259 298 3,000 -100 Descending New York TRACON
Sun 05:47:45 PM 40.9500 -74.5167 135° Southeast 268 308 3,000  Level New York TRACON
Sun 05:48:45 PM 40.9667 -74.4167 78° East 271 312 3,000  Level New York TRACON
Sun 05:49:45 PM 40.9833 -74.3167 78° East 274 315 3,000  Level New York TRACON
Sun 05:50:45 PM 41.0000 -74.2333 75° East 238 274 3,000 -158 Level New York TRACON
Sun 05:51:39 PM 41.0167 -74.1667 72° East 207 238 2,700 -474 Descending New York TRACON
Sun 05:52:39 PM 41.0167 -74.0833 90° East 193 222 2,100 -600 Descending New York TRACON

Login

Don't have an account? Register now (free) for customized features, flight alerts, and more!